Time;durP1;ratioP1;P1;durP2;ratioP2;P2;SDS_P1;SDS_P2;PMS_P1;PMS_P2;Temp;Humidity;BMP_temperature;BMP_pressure;BME280_temperature;BME280_humidity;BME280_pressure;Samples;Min_cycle;Max_cycle;Signal;HPM_P1;HPM_P2
2021/03/14 00:00:32;;;;;;;;;1.50;1.50;;;;;;;;5019415;28;11589;-82
2021/03/14 00:02:59;;;;;;;;;1.00;1.00;;;;;;;;5020670;28;11612;-80
2021/03/14 00:05:27;;;;;;;;;1.00;1.00;;;;;;;;5022361;28;11572;-81
2021/03/14 00:07:55;;;;;;;;;2.00;2.00;;;;;;;;5020110;28;11548;-78
2021/03/14 00:10:23;;;;;;;;;0.25;0.25;;;;;;;;5023071;28;11578;-85
2021/03/14 00:12:50;;;;;;;;;0.00;0.00;;;;;;;;5022422;28;11530;-85
2021/03/14 00:15:19;;;;;;;;;0.50;0.50;;;;;;;;5037280;28;11570;-85
2021/03/14 00:17:46;;;;;;;;;1.00;1.00;;;;;;;;5022696;28;11559;-83
2021/03/14 00:20:14;;;;;;;;;2.00;0.50;;;;;;;;5023292;28;12365;-84
2021/03/14 00:22:41;;;;;;;;;0.50;0.50;;;;;;;;5023778;28;11526;-84
2021/03/14 00:25:10;;;;;;;;;1.50;1.50;;;;;;;;5022254;28;11569;-80
2021/03/14 00:27:43;;;;;;;;;0.25;0.25;;;;;;;;5023613;28;11552;-84
2021/03/14 00:30:13;;;;;;;;;0.75;0.75;;;;;;;;5023539;28;11542;-83
2021/03/14 00:32:41;;;;;;;;;3.25;1.00;;;;;;;;5026072;28;11573;-80
2021/03/14 00:35:09;;;;;;;;;0.00;0.00;;;;;;;;5027783;28;12372;-83
2021/03/14 00:37:36;;;;;;;;;0.50;0.50;;;;;;;;5026268;28;11570;-80
2021/03/14 00:40:05;;;;;;;;;0.75;0.75;;;;;;;;5025642;28;11565;-81
2021/03/14 00:42:32;;;;;;;;;0.00;0.00;;;;;;;;5024535;28;11535;-81
2021/03/14 00:45:04;;;;;;;;;0.50;0.00;;;;;;;;5025578;28;11549;-79
2021/03/14 00:47:33;;;;;;;;;0.00;0.00;;;;;;;;5026326;28;11548;-79
2021/03/14 00:50:01;;;;;;;;;2.00;0.00;;;;;;;;5020653;28;12447;-82
2021/03/14 00:52:28;;;;;;;;;1.00;0.00;;;;;;;;5026664;28;12274;-81
2021/03/14 00:54:55;;;;;;;;;0.75;0.75;;;;;;;;5024218;28;11553;-78
2021/03/14 00:57:22;;;;;;;;;1.25;0.00;;;;;;;;5025585;28;11689;-78
2021/03/14 00:59:49;;;;;;;;;0.00;0.00;;;;;;;;5023941;28;11548;-80
2021/03/14 01:02:17;;;;;;;;;0.00;0.00;;;;;;;;5025118;28;11515;-83
2021/03/14 01:04:44;;;;;;;;;4.50;3.00;;;;;;;;5024243;28;11545;-78
2021/03/14 01:07:11;;;;;;;;;0.00;0.00;;;;;;;;5025070;28;11542;-81
2021/03/14 01:09:38;;;;;;;;;1.00;1.00;;;;;;;;5026312;28;11565;-82
2021/03/14 01:12:06;;;;;;;;;0.00;0.00;;;;;;;;5021781;28;11540;-83
2021/03/14 01:14:34;;;;;;;;;0.75;0.75;;;;;;;;5025302;28;11546;-77
2021/03/14 01:17:00;;;;;;;;;4.50;2.50;;;;;;;;5024269;28;11680;-81
2021/03/14 01:19:28;;;;;;;;;0.00;0.00;;;;;;;;5025995;28;11659;-80
2021/03/14 01:21:58;;;;;;;;;1.50;0.00;;;;;;;;5025361;28;11538;-82
2021/03/14 01:24:25;;;;;;;;;1.00;1.00;;;;;;;;5025356;28;12445;-78
2021/03/14 01:26:52;;;;;;;;;0.00;0.00;;;;;;;;5025090;28;11536;-82
2021/03/14 01:29:22;;;;;;;;;0.00;0.00;;;;;;;;5023992;28;11550;-81
2021/03/14 01:31:48;;;;;;;;;4.00;2.00;;;;;;;;5020387;28;11503;-84
2021/03/14 01:34:15;;;;;;;;;0.00;0.00;;;;;;;;5023681;28;11541;-77
2021/03/14 01:36:43;;;;;;;;;1.00;1.00;;;;;;;;5025220;28;11532;-79
2021/03/14 01:39:10;;;;;;;;;1.00;1.00;;;;;;;;5023603;28;11690;-83
2021/03/14 01:41:37;;;;;;;;;1.00;1.00;;;;;;;;5023950;28;11555;-78
2021/03/14 01:44:04;;;;;;;;;1.00;1.00;;;;;;;;5024304;28;11499;-76
2021/03/14 01:46:32;;;;;;;;;1.25;1.00;;;;;;;;5025397;28;11540;-78
2021/03/14 01:49:02;;;;;;;;;2.00;0.00;;;;;;;;5025260;28;11549;-83
2021/03/14 01:51:29;;;;;;;;;0.00;0.00;;;;;;;;5025076;28;11544;-76
2021/03/14 01:53:57;;;;;;;;;4.00;1.00;;;;;;;;5007769;28;11561;-83
2021/03/14 01:56:24;;;;;;;;;1.25;1.25;;;;;;;;5023392;28;11600;-81
2021/03/14 01:58:52;;;;;;;;;0.75;0.75;;;;;;;;5024153;28;11618;-81
2021/03/14 02:01:19;;;;;;;;;1.50;1.50;;;;;;;;5024205;28;11492;-81
2021/03/14 02:03:46;;;;;;;;;1.00;1.00;;;;;;;;5024705;28;12444;-81
2021/03/14 02:06:13;;;;;;;;;1.00;1.00;;;;;;;;5022906;28;11594;-79
2021/03/14 02:08:40;;;;;;;;;1.00;1.00;;;;;;;;5021086;28;11562;-80
2021/03/14 02:11:08;;;;;;;;;0.50;0.50;;;;;;;;5022644;28;12402;-81
2021/03/14 02:13:38;;;;;;;;;1.00;1.00;;;;;;;;5021862;28;11535;-79
2021/03/14 02:16:08;;;;;;;;;1.00;1.00;;;;;;;;5024229;28;11529;-81
2021/03/14 02:18:37;;;;;;;;;1.00;1.00;;;;;;;;5022780;28;11587;-80
2021/03/14 02:21:05;;;;;;;;;0.00;0.00;;;;;;;;5025314;28;11546;-80
2021/03/14 02:23:40;;;;;;;;;1.75;1.75;;;;;;;;5023869;28;11614;-80
2021/03/14 02:26:12;;;;;;;;;1.00;1.00;;;;;;;;5023420;28;11554;-80
2021/03/14 02:28:40;;;;;;;;;2.75;1.75;;;;;;;;5023754;28;11530;-80
2021/03/14 02:31:08;;;;;;;;;1.50;1.50;;;;;;;;5022985;28;11620;-80
2021/03/14 02:33:37;;;;;;;;;1.00;1.00;;;;;;;;5023698;28;11668;-79
2021/03/14 02:36:06;;;;;;;;;0.75;0.75;;;;;;;;5023525;28;11560;-79
2021/03/14 02:38:33;;;;;;;;;6.50;1.75;;;;;;;;5022868;28;11556;-78
2021/03/14 02:41:01;;;;;;;;;0.25;0.25;;;;;;;;5023794;28;11618;-78
2021/03/14 02:43:28;;;;;;;;;3.00;3.00;;;;;;;;5022473;28;11560;-80
2021/03/14 02:45:56;;;;;;;;;1.00;1.00;;;;;;;;5021240;28;11567;-80
2021/03/14 02:48:24;;;;;;;;;1.50;0.75;;;;;;;;5021724;28;12302;-80
2021/03/14 02:50:51;;;;;;;;;1.00;1.00;;;;;;;;5023304;28;11703;-76
2021/03/14 02:53:22;;;;;;;;;1.75;1.75;;;;;;;;5022634;28;11539;-75
2021/03/14 02:55:50;;;;;;;;;1.00;1.00;;;;;;;;5023326;28;11566;-80
2021/03/14 02:58:17;;;;;;;;;1.50;1.50;;;;;;;;5021483;28;11540;-78
2021/03/14 03:00:45;;;;;;;;;0.75;0.75;;;;;;;;5019156;28;11513;-84
2021/03/14 03:03:13;;;;;;;;;2.50;1.00;;;;;;;;5022692;28;11667;-82
2021/03/14 03:05:40;;;;;;;;;3.00;1.00;;;;;;;;5021568;28;11737;-83
2021/03/14 03:08:08;;;;;;;;;1.00;1.00;;;;;;;;5021573;28;11549;-81
2021/03/14 03:10:36;;;;;;;;;0.75;0.75;;;;;;;;5022988;28;11508;-81
2021/03/14 03:13:04;;;;;;;;;0.75;0.50;;;;;;;;5023000;28;11554;-81
2021/03/14 03:15:31;;;;;;;;;1.25;1.00;;;;;;;;5022897;28;11662;-78
2021/03/14 03:18:00;;;;;;;;;0.00;0.00;;;;;;;;5021675;28;11659;-81
2021/03/14 03:20:29;;;;;;;;;1.50;1.50;;;;;;;;5024357;28;11653;-78
2021/03/14 03:22:59;;;;;;;;;0.00;0.00;;;;;;;;5017101;28;11710;-79
2021/03/14 03:25:26;;;;;;;;;3.75;3.75;;;;;;;;5023678;28;11652;-81
2021/03/14 03:27:53;;;;;;;;;1.00;1.00;;;;;;;;5014393;28;11632;-84
2021/03/14 03:30:27;;;;;;;;;1.50;1.50;;;;;;;;5022293;28;11676;-81
2021/03/14 03:32:54;;;;;;;;;1.75;1.00;;;;;;;;5022525;28;11602;-81
2021/03/14 03:35:22;;;;;;;;;2.00;0.00;;;;;;;;5022728;28;12180;-82
2021/03/14 03:37:50;;;;;;;;;0.00;0.00;;;;;;;;5022969;28;11660;-81
2021/03/14 03:40:21;;;;;;;;;1.50;0.75;;;;;;;;5018547;28;12321;-82
2021/03/14 03:42:53;;;;;;;;;1.00;1.00;;;;;;;;5022343;28;11689;-82
2021/03/14 03:45:21;;;;;;;;;1.00;1.00;;;;;;;;5018910;28;11664;-79
2021/03/14 03:47:48;;;;;;;;;1.00;1.00;;;;;;;;5022009;28;11723;-78
2021/03/14 03:50:16;;;;;;;;;0.00;0.00;;;;;;;;5014126;28;11530;-81
2021/03/14 03:52:46;;;;;;;;;2.00;0.00;;;;;;;;5022320;28;11750;-79
2021/03/14 03:55:15;;;;;;;;;2.00;2.00;;;;;;;;5021541;28;11534;-80
2021/03/14 03:57:43;;;;;;;;;1.00;1.00;;;;;;;;5019713;28;11664;-83
2021/03/14 04:00:14;;;;;;;;;2.00;0.25;;;;;;;;5020594;28;12413;-82
2021/03/14 04:02:42;;;;;;;;;1.00;0.25;;;;;;;;5020992;28;11527;-83
2021/03/14 04:05:11;;;;;;;;;2.00;0.25;;;;;;;;5023213;28;11599;-79
2021/03/14 04:07:39;;;;;;;;;1.00;0.50;;;;;;;;5020953;28;11642;-81
2021/03/14 04:10:09;;;;;;;;;10.75;9.25;;;;;;;;5022192;28;11557;-81
2021/03/14 04:12:39;;;;;;;;;1.00;1.00;;;;;;;;5022453;28;11681;-81
2021/03/14 04:15:08;;;;;;;;;0.00;0.00;;;;;;;;5020192;28;11702;-80
2021/03/14 04:17:36;;;;;;;;;0.50;0.50;;;;;;;;5005227;28;11555;-81
2021/03/14 04:20:05;;;;;;;;;2.00;0.00;;;;;;;;5022542;28;11668;-82
2021/03/14 04:22:33;;;;;;;;;4.00;4.00;;;;;;;;5022302;28;11572;-82
2021/03/14 04:25:02;;;;;;;;;2.00;2.00;;;;;;;;5022047;28;13023;-80
2021/03/14 04:27:30;;;;;;;;;2.00;1.00;;;;;;;;5022529;28;11672;-84
2021/03/14 04:29:58;;;;;;;;;4.00;1.50;;;;;;;;5023899;28;11527;-85
2021/03/14 04:32:29;;;;;;;;;1.25;1.00;;;;;;;;5020233;28;11482;-83
2021/03/14 04:34:57;;;;;;;;;1.00;1.00;;;;;;;;5023717;28;11691;-83
2021/03/14 04:37:24;;;;;;;;;6.00;6.00;;;;;;;;5017655;28;11586;-81
2021/03/14 04:39:52;;;;;;;;;0.75;0.00;;;;;;;;5023166;28;11569;-81
2021/03/14 04:42:19;;;;;;;;;5.00;4.00;;;;;;;;5012886;28;11611;-82
2021/03/14 04:44:47;;;;;;;;;1.00;1.00;;;;;;;;5023029;28;11655;-82
2021/03/14 04:47:15;;;;;;;;;5.00;0.25;;;;;;;;5022608;28;11525;-81
2021/03/14 04:49:42;;;;;;;;;1.00;1.00;;;;;;;;5020641;28;11663;-81
2021/03/14 04:52:10;;;;;;;;;0.50;0.50;;;;;;;;5022981;28;11664;-82
2021/03/14 04:54:38;;;;;;;;;2.00;0.00;;;;;;;;5021826;28;11539;-80
2021/03/14 04:57:06;;;;;;;;;2.00;2.00;;;;;;;;5022797;28;11617;-82
2021/03/14 04:59:33;;;;;;;;;4.75;0.75;;;;;;;;5020910;28;11539;-81
2021/03/14 05:02:02;;;;;;;;;1.00;1.00;;;;;;;;5021770;28;12284;-82
2021/03/14 05:04:31;;;;;;;;;11.00;8.50;;;;;;;;5020936;28;11557;-82
2021/03/14 05:06:59;;;;;;;;;2.00;0.75;;;;;;;;5021256;28;11571;-82
2021/03/14 05:09:26;;;;;;;;;6.50;3.00;;;;;;;;5022261;28;11548;-82
2021/03/14 05:11:53;;;;;;;;;0.75;0.75;;;;;;;;5018857;28;11571;-80
2021/03/14 05:14:21;;;;;;;;;0.75;0.75;;;;;;;;5022434;28;11546;-84
2021/03/14 05:16:48;;;;;;;;;1.00;1.00;;;;;;;;5023810;28;11531;-82
2021/03/14 05:19:15;;;;;;;;;2.00;2.00;;;;;;;;5025941;28;11565;-81
2021/03/14 05:21:43;;;;;;;;;5.00;2.00;;;;;;;;5024479;28;11599;-80
2021/03/14 05:24:12;;;;;;;;;1.00;1.00;;;;;;;;5024787;28;11663;-81
2021/03/14 05:26:41;;;;;;;;;1.00;1.00;;;;;;;;5024572;28;11524;-80
2021/03/14 05:29:11;;;;;;;;;1.50;1.50;;;;;;;;5022810;28;11523;-80
2021/03/14 05:31:39;;;;;;;;;4.25;4.25;;;;;;;;5024639;28;11598;-79
2021/03/14 05:34:09;;;;;;;;;5.25;2.00;;;;;;;;5024563;28;11542;-80
2021/03/14 05:36:36;;;;;;;;;3.00;3.00;;;;;;;;5024772;28;11533;-80
2021/03/14 05:39:06;;;;;;;;;1.00;1.00;;;;;;;;5023872;28;11612;-79
2021/03/14 05:41:34;;;;;;;;;2.50;2.50;;;;;;;;5024769;28;11668;-83
2021/03/14 05:44:02;;;;;;;;;4.00;2.00;;;;;;;;5014048;28;12370;-83
2021/03/14 05:46:31;;;;;;;;;10.00;3.50;;;;;;;;5021595;28;11556;-81
2021/03/14 05:48:59;;;;;;;;;4.00;4.00;;;;;;;;5007164;28;12365;-81
2021/03/14 05:51:27;;;;;;;;;2.50;2.00;;;;;;;;5021278;28;11671;-82
2021/03/14 05:53:55;;;;;;;;;5.00;3.00;;;;;;;;5026135;28;11531;-83
2021/03/14 05:56:24;;;;;;;;;3.50;3.50;;;;;;;;5024591;28;11665;-82
2021/03/14 05:58:52;;;;;;;;;11.25;5.50;;;;;;;;5024171;28;11571;-81
2021/03/14 06:01:22;;;;;;;;;6.50;2.00;;;;;;;;5023519;28;11458;-79
2021/03/14 06:03:49;;;;;;;;;4.75;2.00;;;;;;;;5024028;28;11562;-79
2021/03/14 06:06:16;;;;;;;;;9.00;4.75;;;;;;;;5024866;28;11551;-82
2021/03/14 06:08:43;;;;;;;;;3.00;3.00;;;;;;;;5022790;28;11635;-82
2021/03/14 06:11:12;;;;;;;;;0.75;0.75;;;;;;;;5023468;28;11670;-82
2021/03/14 06:13:40;;;;;;;;;6.00;6.00;;;;;;;;5023725;28;11645;-81
2021/03/14 06:16:08;;;;;;;;;6.75;4.50;;;;;;;;5024548;28;11555;-81
2021/03/14 06:18:36;;;;;;;;;7.50;2.50;;;;;;;;5021527;28;11583;-81
2021/03/14 06:21:03;;;;;;;;;4.00;3.75;;;;;;;;5020830;28;11623;-78
2021/03/14 06:23:30;;;;;;;;;3.50;2.00;;;;;;;;5025663;28;12338;-83
2021/03/14 06:25:58;;;;;;;;;5.75;3.00;;;;;;;;5023218;28;11560;-78
2021/03/14 06:28:34;;;;;;;;;5.50;4.00;;;;;;;;5023530;28;11677;-78
2021/03/14 06:31:18;;;;;;;;;2.50;1.50;;;;;;;;5023798;28;11453;-80
2021/03/14 06:33:45;;;;;;;;;1.00;1.00;;;;;;;;5019684;28;11662;-81
2021/03/14 06:36:13;;;;;;;;;4.00;4.00;;;;;;;;5018478;28;11539;-75
2021/03/14 06:38:40;;;;;;;;;1.00;1.00;;;;;;;;5021035;28;11526;-76
2021/03/14 06:41:18;;;;;;;;;1.25;1.00;;;;;;;;5024731;28;11664;-77
2021/03/14 06:43:47;;;;;;;;;4.25;1.75;;;;;;;;5022999;28;11545;-80
2021/03/14 06:46:36;;;;;;;;;4.00;1.75;;;;;;;;5023556;28;11577;-77
2021/03/14 06:49:07;;;;;;;;;4.50;2.00;;;;;;;;5019538;28;11682;-80
2021/03/14 06:51:35;;;;;;;;;1.25;1.00;;;;;;;;5024597;28;12192;-80
2021/03/14 06:54:18;;;;;;;;;4.75;1.00;;;;;;;;5024015;28;11492;-81
2021/03/14 06:57:07;;;;;;;;;7.75;1.00;;;;;;;;5012384;28;11530;-79
2021/03/14 06:59:35;;;;;;;;;8.25;4.75;;;;;;;;5024259;28;11643;-76
2021/03/14 07:02:05;;;;;;;;;3.50;2.00;;;;;;;;5023863;28;11426;-77
2021/03/14 07:04:34;;;;;;;;;5.25;1.25;;;;;;;;5009359;28;11488;-77
2021/03/14 07:07:02;;;;;;;;;5.50;2.00;;;;;;;;5025685;28;11497;-78
2021/03/14 07:09:29;;;;;;;;;4.50;1.50;;;;;;;;5022773;28;11500;-79
2021/03/14 07:11:56;;;;;;;;;3.00;3.00;;;;;;;;5022783;28;11477;-80
2021/03/14 07:14:26;;;;;;;;;1.75;1.75;;;;;;;;5023068;28;11581;-79
2021/03/14 07:16:54;;;;;;;;;2.00;2.00;;;;;;;;5022962;28;11593;-81
2021/03/14 07:19:25;;;;;;;;;7.25;2.00;;;;;;;;5017172;28;11575;-77
2021/03/14 07:22:01;;;;;;;;;2.00;1.00;;;;;;;;5020663;28;11549;-79
2021/03/14 07:24:31;;;;;;;;;2.00;2.00;;;;;;;;5022848;28;11475;-80
2021/03/14 07:27:00;;;;;;;;;1.00;1.00;;;;;;;;5021040;28;11470;-77
2021/03/14 07:29:28;;;;;;;;;4.00;1.25;;;;;;;;5022403;28;11527;-88
2021/03/14 07:31:56;;;;;;;;;4.00;1.00;;;;;;;;5020340;28;11443;-84
2021/03/14 07:34:24;;;;;;;;;1.25;1.25;;;;;;;;5021749;28;12306;-81
2021/03/14 07:36:52;;;;;;;;;2.00;2.00;;;;;;;;5015506;28;11495;-81
2021/03/14 07:39:19;;;;;;;;;3.00;2.00;;;;;;;;5020543;28;11661;-84
2021/03/14 07:41:47;;;;;;;;;4.50;1.00;;;;;;;;5021924;28;11482;-84
2021/03/14 07:44:17;;;;;;;;;5.00;1.25;;;;;;;;5018094;28;11504;-85
2021/03/14 07:46:44;;;;;;;;;2.50;0.00;;;;;;;;5020315;28;12456;-84
2021/03/14 07:49:13;;;;;;;;;4.75;0.25;;;;;;;;5021128;28;11476;-84
2021/03/14 07:51:43;;;;;;;;;4.75;1.50;;;;;;;;5017577;28;12398;-82
2021/03/14 07:54:15;;;;;;;;;2.00;2.00;;;;;;;;5022778;28;11496;-81
2021/03/14 07:56:42;;;;;;;;;1.00;1.00;;;;;;;;5022326;28;11487;-75
2021/03/14 07:59:09;;;;;;;;;4.00;1.50;;;;;;;;5021542;28;11587;-75
2021/03/14 08:01:37;;;;;;;;;4.50;0.00;;;;;;;;5021606;28;11416;-75
2021/03/14 08:04:05;;;;;;;;;5.00;1.25;;;;;;;;5022099;28;11511;-74
2021/03/14 08:06:52;;;;;;;;;3.25;2.00;;;;;;;;5021052;28;11464;-74
2021/03/14 08:09:44;;;;;;;;;1.00;1.00;;;;;;;;5020279;28;11478;-74
2021/03/14 08:12:18;;;;;;;;;1.75;1.75;;;;;;;;5023129;28;11640;-72
2021/03/14 08:14:46;;;;;;;;;1.00;1.00;;;;;;;;5021871;28;11584;-76
2021/03/14 08:17:20;;;;;;;;;1.00;1.00;;;;;;;;5022304;28;11241;-76
2021/03/14 08:19:48;;;;;;;;;1.00;1.00;;;;;;;;5020747;28;11482;-76
2021/03/14 08:22:45;;;;;;;;;1.50;1.50;;;;;;;;5022148;28;11484;-77
2021/03/14 08:25:27;;;;;;;;;1.75;1.75;;;;;;;;5021323;28;11280;-77
2021/03/14 08:27:56;;;;;;;;;3.00;1.00;;;;;;;;5011585;28;11499;-76
2021/03/14 08:30:45;;;;;;;;;4.00;2.25;;;;;;;;5021070;28;11197;-76
2021/03/14 08:33:43;;;;;;;;;2.50;2.50;;;;;;;;5014666;28;11167;-78
2021/03/14 08:36:13;;;;;;;;;3.50;1.75;;;;;;;;4986511;28;11107;-80
2021/03/14 08:38:50;;;;;;;;;2.00;2.00;;;;;;;;5021883;28;11076;-75
2021/03/14 08:41:30;;;;;;;;;5.50;2.75;;;;;;;;5020496;28;11235;-76
2021/03/14 08:44:01;;;;;;;;;2.00;2.00;;;;;;;;5020884;28;11060;-77
2021/03/14 08:47:04;;;;;;;;;2.00;2.00;;;;;;;;5022304;28;10970;-77
2021/03/14 08:49:31;;;;;;;;;2.00;2.00;;;;;;;;5017765;28;11089;-78
2021/03/14 08:51:58;;;;;;;;;2.00;2.00;;;;;;;;5026059;28;11026;-77
2021/03/14 08:54:28;;;;;;;;;5.25;2.50;;;;;;;;5024872;28;10878;-75
2021/03/14 08:56:57;;;;;;;;;5.00;2.75;;;;;;;;5025724;28;10953;-78
2021/03/14 08:59:24;;;;;;;;;1.75;1.75;;;;;;;;5025356;28;10845;-77
2021/03/14 09:01:54;;;;;;;;;2.75;1.00;;;;;;;;5024635;28;10585;-77
2021/03/14 09:04:22;;;;;;;;;5.00;2.00;;;;;;;;5025090;28;10624;-80
2021/03/14 09:06:49;;;;;;;;;1.00;1.00;;;;;;;;5024606;28;10734;-71
2021/03/14 09:09:18;;;;;;;;;3.00;1.00;;;;;;;;5025330;28;10700;-68
2021/03/14 09:11:48;;;;;;;;;2.50;1.00;;;;;;;;5020426;28;10609;-70
2021/03/14 09:14:30;;;;;;;;;1.50;0.00;;;;;;;;5025200;28;10715;-70
2021/03/14 09:16:58;;;;;;;;;3.00;1.75;;;;;;;;5024395;28;11533;-73
2021/03/14 09:19:30;;;;;;;;;2.50;2.50;;;;;;;;5021514;28;13332;-71
2021/03/14 09:21:58;;;;;;;;;;;;;;;;;;5021209;28;10773;-73
2021/03/14 09:24:30;;;;;;;;;1.00;1.00;;;;;;;;5025154;28;8867;-70
2021/03/14 09:27:00;;;;;;;;;2.50;2.50;;;;;;;;5024825;28;10621;-69
2021/03/14 09:29:41;;;;;;;;;3.00;1.00;;;;;;;;5019351;28;10705;-69
2021/03/14 09:32:25;;;;;;;;;2.75;1.50;;;;;;;;5024653;28;11573;-70
2021/03/14 09:35:08;;;;;;;;;6.75;5.00;;;;;;;;5025918;28;10770;-69
2021/03/14 09:37:35;;;;;;;;;1.25;1.25;;;;;;;;5024858;28;11594;-69
2021/03/14 09:40:24;;;;;;;;;2.00;0.50;;;;;;;;5025645;28;11366;-69
2021/03/14 09:42:53;;;;;;;;;3.00;1.00;;;;;;;;5025421;28;10492;-69
2021/03/14 09:45:22;;;;;;;;;3.00;2.00;;;;;;;;5025178;28;10570;-69
2021/03/14 09:47:58;;;;;;;;;1.25;1.25;;;;;;;;5025215;28;10557;-70
2021/03/14 09:50:26;;;;;;;;;1.00;1.00;;;;;;;;5024652;28;10530;-70
2021/03/14 09:52:53;;;;;;;;;1.00;1.00;;;;;;;;5025113;28;10423;-68
2021/03/14 09:55:24;;;;;;;;;1.25;1.00;;;;;;;;5024162;28;10397;-68
2021/03/14 09:57:52;;;;;;;;;0.50;0.50;;;;;;;;5025474;28;10528;-72
2021/03/14 10:00:24;;;;;;;;;2.00;1.00;;;;;;;;5022774;28;10405;-69
2021/03/14 10:02:51;;;;;;;;;1.00;1.00;;;;;;;;5024004;28;10604;-71
2021/03/14 10:05:19;;;;;;;;;0.00;0.00;;;;;;;;5024645;28;10174;-69
2021/03/14 10:07:51;;;;;;;;;2.75;1.25;;;;;;;;5023176;28;10277;-71
2021/03/14 10:10:18;;;;;;;;;1.00;0.00;;;;;;;;5021039;28;10258;-70
2021/03/14 10:12:46;;;;;;;;;1.00;1.00;;;;;;;;5023003;28;10264;-69
2021/03/14 10:15:17;;;;;;;;;4.75;1.75;;;;;;;;5023748;28;10400;-71
2021/03/14 10:17:46;;;;;;;;;1.00;1.00;;;;;;;;5023231;28;10259;-72
2021/03/14 10:20:14;;;;;;;;;1.00;0.25;;;;;;;;5022246;28;10268;-72
2021/03/14 10:22:40;;;;;;;;;6.50;1.25;;;;;;;;5024312;28;10251;-71
2021/03/14 10:25:23;;;;;;;;;2.00;0.75;;;;;;;;5022302;28;10249;-72
2021/03/14 10:27:50;;;;;;;;;0.00;0.00;;;;;;;;5022679;28;10162;-72
2021/03/14 10:30:21;;;;;;;;;1.00;1.00;;;;;;;;5022117;28;10095;-71
2021/03/14 10:32:49;;;;;;;;;3.00;3.00;;;;;;;;5019547;28;9941;-72
2021/03/14 10:35:16;;;;;;;;;4.50;3.00;;;;;;;;5023829;28;9870;-72
2021/03/14 10:37:43;;;;;;;;;1.00;1.00;;;;;;;;5019028;28;9919;-72
2021/03/14 10:40:12;;;;;;;;;4.00;3.00;;;;;;;;5020213;28;9802;-71
2021/03/14 10:42:41;;;;;;;;;2.75;1.00;;;;;;;;5015945;28;9946;-71
2021/03/14 10:45:11;;;;;;;;;1.00;1.00;;;;;;;;5022699;28;9931;-71
2021/03/14 10:47:40;;;;;;;;;1.75;1.00;;;;;;;;5022539;28;9848;-72
2021/03/14 10:50:16;;;;;;;;;1.00;1.00;;;;;;;;5023075;28;9963;-73
2021/03/14 10:52:44;;;;;;;;;2.75;1.50;;;;;;;;5018406;28;9954;-72
2021/03/14 10:55:29;;;;;;;;;2.00;2.00;;;;;;;;5023428;28;10081;-72
2021/03/14 10:58:07;;;;;;;;;2.00;2.00;;;;;;;;5021519;28;9794;-72
2021/03/14 11:00:37;;;;;;;;;1.50;1.00;;;;;;;;5021824;28;9569;-71
2021/03/14 11:03:13;;;;;;;;;2.00;2.00;;;;;;;;5018124;28;9630;-71
2021/03/14 11:05:42;;;;;;;;;3.75;2.00;;;;;;;;5023714;28;9555;-72
2021/03/14 11:08:09;;;;;;;;;3.25;0.00;;;;;;;;5021884;28;9879;-72
2021/03/14 11:10:36;;;;;;;;;1.50;0.00;;;;;;;;5020749;28;9650;-71
2021/03/14 11:13:15;;;;;;;;;1.00;1.00;;;;;;;;5019711;28;9427;-72
2021/03/14 11:15:42;;;;;;;;;2.00;1.00;;;;;;;;5022970;28;9293;-72
2021/03/14 11:18:20;;;;;;;;;1.00;1.00;;;;;;;;5022782;28;9374;-71
2021/03/14 11:20:48;;;;;;;;;0.75;0.75;;;;;;;;5020666;28;9782;-70
2021/03/14 11:23:15;;;;;;;;;0.25;0.25;;;;;;;;5022839;28;10272;-71
2021/03/14 11:25:42;;;;;;;;;2.00;2.00;;;;;;;;5019456;28;9641;-71
2021/03/14 11:28:12;;;;;;;;;2.00;2.00;;;;;;;;5023421;28;9772;-72
2021/03/14 11:30:38;;;;;;;;;1.50;1.50;;;;;;;;5021334;28;9882;-72
2021/03/14 11:33:07;;;;;;;;;3.00;1.00;;;;;;;;5022891;28;10110;-72
2021/03/14 11:35:40;;;;;;;;;2.50;1.00;;;;;;;;5021224;28;10197;-71
2021/03/14 11:38:07;;;;;;;;;0.25;0.25;;;;;;;;5022588;28;10043;-73
2021/03/14 11:40:37;;;;;;;;;1.25;1.25;;;;;;;;5022838;28;9938;-72
2021/03/14 11:43:04;;;;;;;;;2.00;0.75;;;;;;;;5020411;28;9966;-72
2021/03/14 11:45:35;;;;;;;;;1.00;1.00;;;;;;;;5022950;28;9682;-73
2021/03/14 11:48:02;;;;;;;;;2.00;1.25;;;;;;;;5022902;28;9880;-73
2021/03/14 11:50:30;;;;;;;;;1.00;1.00;;;;;;;;5023781;28;9719;-70
2021/03/14 11:52:58;;;;;;;;;2.00;0.50;;;;;;;;5021021;28;11062;-73
2021/03/14 11:55:26;;;;;;;;;4.00;4.00;;;;;;;;5023621;28;9641;-73
2021/03/14 11:57:57;;;;;;;;;2.00;0.00;;;;;;;;5019458;28;9779;-71
2021/03/14 12:00:27;;;;;;;;;0.33;0.33;;;;;;;;5023021;28;9264;-74
2021/03/14 12:02:56;;;;;;;;;3.00;1.00;;;;;;;;5020728;28;9477;-73
2021/03/14 12:05:26;;;;;;;;;4.00;1.00;;;;;;;;5021199;28;9450;-73
2021/03/14 12:07:53;;;;;;;;;0.00;0.00;;;;;;;;5021127;28;9148;-72
2021/03/14 12:10:26;;;;;;;;;1.75;0.00;;;;;;;;5021699;28;9374;-72
2021/03/14 12:12:55;;;;;;;;;1.00;1.00;;;;;;;;5021618;28;9515;-71
2021/03/14 12:15:25;;;;;;;;;1.25;1.25;;;;;;;;5020498;28;9399;-70
2021/03/14 12:17:52;;;;;;;;;1.00;1.00;;;;;;;;5018630;28;10183;-70
2021/03/14 12:20:20;;;;;;;;;3.50;1.00;;;;;;;;5021324;28;9586;-72
2021/03/14 12:22:47;;;;;;;;;0.00;0.00;;;;;;;;5021380;28;9561;-71
2021/03/14 12:25:14;;;;;;;;;0.50;0.00;;;;;;;;5024468;28;9585;-69
2021/03/14 12:27:42;;;;;;;;;0.00;0.00;;;;;;;;5023871;28;9633;-70
2021/03/14 12:30:18;;;;;;;;;2.75;0.00;;;;;;;;5026088;28;10421;-71
2021/03/14 12:32:45;;;;;;;;;1.00;1.00;;;;;;;;5023425;28;9837;-70
2021/03/14 12:35:12;;;;;;;;;0.00;0.00;;;;;;;;5027186;28;9823;-70
2021/03/14 12:37:48;;;;;;;;;0.00;0.00;;;;;;;;5026038;28;9718;-72
2021/03/14 12:40:18;;;;;;;;;0.00;0.00;;;;;;;;5025514;28;9455;-71
2021/03/14 12:42:46;;;;;;;;;2.00;2.00;;;;;;;;5020274;28;9259;-72
2021/03/14 12:45:14;;;;;;;;;4.00;0.67;;;;;;;;5024131;28;10088;-70
2021/03/14 12:47:45;;;;;;;;;0.00;0.00;;;;;;;;5025665;28;9334;-72
2021/03/14 12:50:13;;;;;;;;;1.00;0.00;;;;;;;;5022397;28;9369;-72
2021/03/14 12:52:43;;;;;;;;;1.00;0.00;;;;;;;;5018947;28;9413;-72
2021/03/14 12:55:17;;;;;;;;;1.50;0.00;;;;;;;;5014641;28;9487;-71
2021/03/14 12:57:45;;;;;;;;;2.00;0.75;;;;;;;;5024364;28;9653;-71
2021/03/14 13:00:14;;;;;;;;;0.00;0.00;;;;;;;;5023425;28;9585;-72
2021/03/14 13:02:44;;;;;;;;;0.00;0.00;;;;;;;;5026463;28;9587;-73
2021/03/14 13:05:12;;;;;;;;;1.75;0.00;;;;;;;;5025928;28;9578;-70
2021/03/14 13:07:42;;;;;;;;;1.00;1.00;;;;;;;;5025722;28;9571;-72
2021/03/14 13:10:15;;;;;;;;;0.00;0.00;;;;;;;;5026426;28;9643;-72
2021/03/14 13:12:42;;;;;;;;;0.00;0.00;;;;;;;;5025330;28;9545;-72
2021/03/14 13:15:11;;;;;;;;;0.00;0.00;;;;;;;;5026779;28;10145;-73
2021/03/14 13:17:38;;;;;;;;;0.00;0.00;;;;;;;;5023653;28;9507;-73
2021/03/14 13:20:08;;;;;;;;;0.00;0.00;;;;;;;;5025680;28;9560;-70
2021/03/14 13:22:34;;;;;;;;;1.50;0.00;;;;;;;;5026499;28;9724;-72
2021/03/14 13:25:05;;;;;;;;;0.00;0.00;;;;;;;;5028025;28;9707;-71
2021/03/14 13:27:37;;;;;;;;;0.00;0.00;;;;;;;;5025337;28;9556;-73
2021/03/14 13:30:08;;;;;;;;;0.00;0.00;;;;;;;;5026851;28;9422;-70
2021/03/14 13:32:39;;;;;;;;;0.00;0.00;;;;;;;;5028846;28;9325;-73
2021/03/14 13:35:07;;;;;;;;;0.00;0.00;;;;;;;;5024902;28;9243;-73
2021/03/14 13:37:34;;;;;;;;;1.00;0.00;;;;;;;;5024070;28;9172;-72
2021/03/14 13:40:01;;;;;;;;;0.00;0.00;;;;;;;;5024798;28;9862;-74
2021/03/14 13:42:28;;;;;;;;;0.33;0.00;;;;;;;;5024681;28;9061;-70
2021/03/14 13:44:55;;;;;;;;;0.00;0.00;;;;;;;;5024806;28;9336;-72
2021/03/14 13:47:28;;;;;;;;;0.00;0.00;;;;;;;;5024223;28;9379;-73
2021/03/14 13:49:56;;;;;;;;;1.33;0.00;;;;;;;;5025380;28;9351;-75
2021/03/14 13:52:23;;;;;;;;;0.00;0.00;;;;;;;;5024062;28;9345;-74
2021/03/14 13:54:54;;;;;;;;;0.00;0.00;;;;;;;;5020799;28;9418;-74
2021/03/14 13:57:30;;;;;;;;;0.00;0.00;;;;;;;;5024399;28;9430;-73
2021/03/14 13:59:59;;;;;;;;;0.00;0.00;;;;;;;;5025132;28;9575;-73
2021/03/14 14:02:26;;;;;;;;;0.00;0.00;;;;;;;;5023210;28;10206;-74
2021/03/14 14:04:55;;;;;;;;;0.00;0.00;;;;;;;;5024837;28;9570;-72
2021/03/14 14:07:30;;;;;;;;;0.00;0.00;;;;;;;;5024340;28;9336;-73
2021/03/14 14:10:01;;;;;;;;;0.00;0.00;;;;;;;;5021718;28;9377;-72
2021/03/14 14:12:29;;;;;;;;;0.00;0.00;;;;;;;;5021844;28;9480;-73
2021/03/14 14:14:56;;;;;;;;;0.00;0.00;;;;;;;;5023707;28;9563;-72
2021/03/14 14:17:25;;;;;;;;;0.00;0.00;;;;;;;;5023555;28;9482;-73
2021/03/14 14:19:53;;;;;;;;;2.00;0.00;;;;;;;;5023368;28;9418;-74
2021/03/14 14:22:19;;;;;;;;;0.00;0.00;;;;;;;;5024123;28;9537;-74
2021/03/14 14:24:50;;;;;;;;;0.00;0.00;;;;;;;;5024600;28;9297;-74
2021/03/14 14:27:17;;;;;;;;;2.67;0.00;;;;;;;;5023174;28;9335;-75
2021/03/14 14:29:44;;;;;;;;;0.00;0.00;;;;;;;;5023010;28;9293;-73
2021/03/14 14:32:11;;;;;;;;;0.50;0.00;;;;;;;;5021805;28;9274;-73
2021/03/14 14:34:38;;;;;;;;;3.00;0.00;;;;;;;;5021914;28;9514;-72
2021/03/14 14:37:06;;;;;;;;;0.00;0.00;;;;;;;;5022519;28;10522;-73
2021/03/14 14:39:33;;;;;;;;;0.00;0.00;;;;;;;;5023034;28;9948;-74
2021/03/14 14:42:01;;;;;;;;;0.00;0.00;;;;;;;;5036961;28;9945;-73
2021/03/14 14:44:28;;;;;;;;;0.00;0.00;;;;;;;;5016661;28;9970;-72
2021/03/14 14:46:55;;;;;;;;;0.00;0.00;;;;;;;;5017033;28;9767;-73
2021/03/14 14:49:22;;;;;;;;;1.00;0.00;;;;;;;;5013758;28;10889;-73
2021/03/14 14:51:48;;;;;;;;;0.00;0.00;;;;;;;;5022684;28;11173;-72
2021/03/14 14:54:15;;;;;;;;;0.00;0.00;;;;;;;;5021651;28;9917;-73
2021/03/14 14:56:42;;;;;;;;;0.50;0.00;;;;;;;;5023829;28;9791;-73
2021/03/14 14:59:10;;;;;;;;;0.25;0.25;;;;;;;;5020405;28;9861;-72